CEB114 RPLL-VHHH
Flight info
| Callsign | CEB114 |
|---|---|
| Flight time | N/A |
| Altitude | 38000 |
| Route | CAB2R CAB A461 NOMAN V533 BETTY BETY3A |
| Aircraft | A339/H-SADE1E2E3GHIJ3J5M1P2RWXY/LB2D1 |
Departure
| Time | N/A |
|---|---|
| Airport | Ninoy Aquino International Airport (RPLL) |
Arrival
| Time | 2026-05-05 13:35 |
|---|---|
| Airport | Hong Kong International Airport (VHHH) |
| Time | Latitude | Longitude | Altitude | Speed | Heading |
|---|---|---|---|---|---|
| 2026-05-05 13:18 | 21.58770 | 114.52379 | 13369 ft | 329 kts | 339° |
| 2026-05-05 13:18 | 21.60852 | 114.51446 | 13023 ft | 323 kts | 327° |
| 2026-05-05 13:18 | 21.62640 | 114.50034 | 12834 ft | 321 kts | 314° |
| 2026-05-05 13:19 | 21.64220 | 114.48284 | 12858 ft | 323 kts | 311° |
| 2026-05-05 13:19 | 21.65740 | 114.46516 | 12881 ft | 324 kts | 310° |
| 2026-05-05 13:19 | 21.67264 | 114.44734 | 12906 ft | 324 kts | 310° |
| 2026-05-05 13:19 | 21.68786 | 114.42959 | 12929 ft | 324 kts | 311° |
| 2026-05-05 13:20 | 21.70322 | 114.41174 | 12944 ft | 324 kts | 311° |
| 2026-05-05 13:20 | 21.71845 | 114.39407 | 12946 ft | 324 kts | 311° |
| 2026-05-05 13:20 | 21.73391 | 114.37614 | 12935 ft | 324 kts | 311° |
| 2026-05-05 13:20 | 21.74919 | 114.35846 | 12733 ft | 326 kts | 311° |
| 2026-05-05 13:21 | 21.76454 | 114.34066 | 12322 ft | 326 kts | 310° |
| 2026-05-05 13:21 | 21.78014 | 114.32260 | 11951 ft | 325 kts | 310° |
| 2026-05-05 13:21 | 21.79529 | 114.30503 | 11592 ft | 324 kts | 311° |
| 2026-05-05 13:21 | 21.81055 | 114.28732 | 11225 ft | 323 kts | 311° |
| 2026-05-05 13:22 | 21.82600 | 114.26940 | 10848 ft | 322 kts | 311° |
| 2026-05-05 13:22 | 21.84109 | 114.25190 | 10499 ft | 320 kts | 311° |
| 2026-05-05 13:22 | 21.85607 | 114.23451 | 10147 ft | 319 kts | 311° |
| 2026-05-05 13:22 | 21.87114 | 114.21704 | 10044 ft | 308 kts | 311° |
| 2026-05-05 13:23 | 21.88525 | 114.20029 | 10014 ft | 295 kts | 308° |
| 2026-05-05 13:23 | 21.89716 | 114.18283 | 9924 ft | 286 kts | 301° |
| 2026-05-05 13:23 | 21.90721 | 114.16446 | 9595 ft | 286 kts | 298° |
| 2026-05-05 13:23 | 21.91676 | 114.14594 | 9274 ft | 286 kts | 297° |
| 2026-05-05 13:24 | 21.92635 | 114.12722 | 8956 ft | 287 kts | 297° |
| 2026-05-05 13:24 | 21.93600 | 114.10840 | 8637 ft | 287 kts | 297° |
| 2026-05-05 13:24 | 21.94565 | 114.08965 | 8326 ft | 287 kts | 297° |
| 2026-05-05 13:24 | 21.95524 | 114.07104 | 8023 ft | 286 kts | 297° |
| 2026-05-05 13:25 | 21.95858 | 114.06455 | 7918 ft | 286 kts | 297° |
| 2026-05-05 13:25 | 21.97461 | 114.03347 | 7417 ft | 285 kts | 297° |
| 2026-05-05 13:25 | 21.98416 | 114.01495 | 7117 ft | 285 kts | 297° |
| 2026-05-05 13:25 | 21.99386 | 113.99612 | 6813 ft | 285 kts | 297° |
| 2026-05-05 13:26 | 22.00338 | 113.97763 | 6514 ft | 285 kts | 297° |
| 2026-05-05 13:26 | 22.01308 | 113.95882 | 6190 ft | 285 kts | 297° |
| 2026-05-05 13:26 | 22.02264 | 113.94026 | 5998 ft | 281 kts | 297° |
| 2026-05-05 13:26 | 22.03199 | 113.92210 | 5744 ft | 280 kts | 297° |
| 2026-05-05 13:27 | 22.04149 | 113.90363 | 5362 ft | 284 kts | 298° |
| 2026-05-05 13:27 | 22.05102 | 113.88509 | 5148 ft | 280 kts | 298° |
| 2026-05-05 13:27 | 22.06050 | 113.86667 | 4833 ft | 282 kts | 298° |
| 2026-05-05 13:27 | 22.06988 | 113.84840 | 4506 ft | 283 kts | 298° |
| 2026-05-05 13:28 | 22.07948 | 113.82975 | 4292 ft | 281 kts | 298° |
| 2026-05-05 13:28 | 22.08888 | 113.81147 | 3947 ft | 283 kts | 298° |
| 2026-05-05 13:28 | 22.09856 | 113.79263 | 3631 ft | 285 kts | 298° |
| 2026-05-05 13:28 | 22.11019 | 113.77581 | 3394 ft | 283 kts | 319° |
| 2026-05-05 13:29 | 22.12690 | 113.76467 | 3157 ft | 281 kts | 335° |
| 2026-05-05 13:29 | 22.14475 | 113.75596 | 2847 ft | 280 kts | 338° |
| 2026-05-05 13:29 | 22.16199 | 113.74783 | 2714 ft | 260 kts | 338° |
| 2026-05-05 13:29 | 22.17786 | 113.74023 | 2704 ft | 239 kts | 338° |
| 2026-05-05 13:30 | 22.19243 | 113.73313 | 2694 ft | 218 kts | 337° |
| 2026-05-05 13:30 | 22.20574 | 113.72655 | 2747 ft | 208 kts | 337° |
| 2026-05-05 13:30 | 22.21884 | 113.72006 | 2738 ft | 208 kts | 337° |
| 2026-05-05 13:30 | 22.23244 | 113.71529 | 2685 ft | 204 kts | 2° |
| 2026-05-05 13:31 | 22.24534 | 113.72056 | 2630 ft | 197 kts | 40° |
| 2026-05-05 13:31 | 22.25547 | 113.73027 | 2581 ft | 196 kts | 46° |
| 2026-05-05 13:31 | 22.26541 | 113.74039 | 2383 ft | 195 kts | 46° |
| 2026-05-05 13:31 | 22.27517 | 113.75050 | 2166 ft | 190 kts | 53° |
| 2026-05-05 13:32 | 22.28205 | 113.76237 | 2016 ft | 183 kts | 66° |
| 2026-05-05 13:32 | 22.28685 | 113.77453 | 1998 ft | 169 kts | 70° |
| 2026-05-05 13:32 | 22.29075 | 113.78607 | 1838 ft | 160 kts | 72° |
| 2026-05-05 13:32 | 22.29428 | 113.79717 | 1624 ft | 152 kts | 72° |
| 2026-05-05 13:33 | 22.29764 | 113.80778 | 1421 ft | 145 kts | 72° |
| 2026-05-05 13:33 | 22.30085 | 113.81781 | 1240 ft | 138 kts | 72° |
| 2026-05-05 13:33 | 22.30390 | 113.82729 | 1071 ft | 133 kts | 72° |
| 2026-05-05 13:34 | 22.31287 | 113.85519 | 578 ft | 133 kts | 72° |
| 2026-05-05 13:34 | 22.31590 | 113.86459 | 404 ft | 132 kts | 72° |
| 2026-05-05 13:34 | 22.31890 | 113.87390 | 231 ft | 131 kts | 72° |
| 2026-05-05 13:35 | 22.32183 | 113.88306 | 72 ft | 130 kts | 72° |
| 2026-05-05 13:35 | 22.32460 | 113.89185 | 40 ft | 110 kts | 69° |
| 2026-05-05 13:35 | 22.32654 | 113.89776 | 40 ft | 57 kts | 73° |
| 2026-05-05 13:35 | 22.32758 | 113.90090 | 40 ft | 36 kts | 71° |
| 2026-05-05 13:36 | 22.32819 | 113.90314 | 40 ft | 27 kts | 82° |
| 2026-05-05 13:36 | 22.32811 | 113.90470 | 40 ft | 15 kts | 102° |
| 2026-05-05 13:36 | 22.32790 | 113.90578 | 40 ft | 14 kts | 102° |
| 2026-05-05 13:36 | 22.32779 | 113.90679 | 40 ft | 13 kts | 85° |
| 2026-05-05 13:37 | 22.32800 | 113.90776 | 40 ft | 10 kts | 72° |
| 2026-05-05 13:37 | 22.32827 | 113.90859 | 40 ft | 12 kts | 71° |
| 2026-05-05 13:37 | 22.32856 | 113.90949 | 40 ft | 13 kts | 70° |
| 2026-05-05 13:37 | 22.32888 | 113.91048 | 40 ft | 14 kts | 71° |
| 2026-05-05 13:38 | 22.32921 | 113.91152 | 40 ft | 15 kts | 71° |
| 2026-05-05 13:38 | 22.32955 | 113.91261 | 40 ft | 15 kts | 72° |
| 2026-05-05 13:38 | 22.32991 | 113.91374 | 40 ft | 16 kts | 70° |
| 2026-05-05 13:38 | 22.33028 | 113.91487 | 40 ft | 15 kts | 71° |
| 2026-05-05 13:39 | 22.33051 | 113.91558 | 40 ft | 15 kts | 71° |
| 2026-05-05 13:40 | 22.33170 | 113.92129 | 40 ft | 11 kts | 152° |
| 2026-05-05 13:40 | 22.33088 | 113.92164 | 40 ft | 13 kts | 160° |
| 2026-05-05 13:40 | 22.32997 | 113.92199 | 40 ft | 14 kts | 160° |
| 2026-05-05 13:41 | 22.32899 | 113.92238 | 40 ft | 15 kts | 160° |
| 2026-05-05 13:41 | 22.32795 | 113.92276 | 40 ft | 16 kts | 161° |
| 2026-05-05 13:41 | 22.32686 | 113.92316 | 40 ft | 16 kts | 161° |
| 2026-05-05 13:41 | 22.32572 | 113.92358 | 40 ft | 17 kts | 162° |
| 2026-05-05 13:42 | 22.32454 | 113.92400 | 40 ft | 18 kts | 160° |
| 2026-05-05 13:42 | 22.32342 | 113.92442 | 40 ft | 14 kts | 160° |
| 2026-05-05 13:42 | 22.32268 | 113.92475 | 40 ft | 8 kts | 146° |
| 2026-05-05 13:42 | 22.32253 | 113.92541 | 40 ft | 10 kts | 80° |
| 2026-05-05 13:43 | 22.32271 | 113.92612 | 40 ft | 8 kts | 80° |
| 2026-05-05 13:43 | 22.32253 | 113.92666 | 40 ft | 7 kts | 148° |
| 2026-05-05 13:43 | 22.32197 | 113.92688 | 40 ft | 4 kts | 162° |
| 2026-05-05 13:43 | 22.32189 | 113.92691 | 40 ft | 0 kts | 162° |
| 2026-05-05 13:44 | 22.32179 | 113.92694 | 40 ft | 4 kts | 162° |
| 2026-05-05 13:44 | 22.32131 | 113.92711 | 40 ft | 9 kts | 162° |
| 2026-05-05 13:45 | 22.32050 | 113.92740 | 40 ft | 14 kts | 161° |
| 2026-05-05 13:45 | 22.31955 | 113.92775 | 40 ft | 11 kts | 160° |
| 2026-05-05 13:45 | 22.31883 | 113.92781 | 40 ft | 10 kts | 212° |
| 2026-05-05 13:45 | 22.31845 | 113.92705 | 40 ft | 12 kts | 250° |
| 2026-05-05 13:46 | 22.31817 | 113.92618 | 40 ft | 12 kts | 251° |
| 2026-05-05 13:46 | 22.31790 | 113.92532 | 40 ft | 12 kts | 251° |
| 2026-05-05 13:46 | 22.31762 | 113.92448 | 40 ft | 11 kts | 251° |
| 2026-05-05 13:46 | 22.31735 | 113.92364 | 40 ft | 11 kts | 251° |
| 2026-05-05 13:47 | 22.31710 | 113.92284 | 40 ft | 10 kts | 250° |
| 2026-05-05 13:47 | 22.31686 | 113.92213 | 40 ft | 10 kts | 251° |
| 2026-05-05 13:47 | 22.31664 | 113.92141 | 40 ft | 10 kts | 250° |
| 2026-05-05 13:47 | 22.31639 | 113.92066 | 40 ft | 11 kts | 250° |
| 2026-05-05 13:48 | 22.31612 | 113.91981 | 40 ft | 12 kts | 251° |
| 2026-05-05 13:48 | 22.31583 | 113.91889 | 40 ft | 13 kts | 250° |
| 2026-05-05 13:48 | 22.31551 | 113.91791 | 40 ft | 14 kts | 251° |
| 2026-05-05 13:48 | 22.31517 | 113.91686 | 40 ft | 15 kts | 252° |
| 2026-05-05 13:49 | 22.31483 | 113.91580 | 40 ft | 14 kts | 251° |
| 2026-05-05 13:49 | 22.31449 | 113.91480 | 40 ft | 12 kts | 250° |
| 2026-05-05 13:49 | 22.31405 | 113.91431 | 40 ft | 9 kts | 190° |
| 2026-05-05 13:49 | 22.31342 | 113.91444 | 40 ft | 9 kts | 161° |
| 2026-05-05 13:50 | 22.31281 | 113.91466 | 40 ft | 9 kts | 161° |
| 2026-05-05 13:50 | 22.31219 | 113.91489 | 40 ft | 9 kts | 161° |
| 2026-05-05 13:50 | 22.31157 | 113.91512 | 40 ft | 9 kts | 161° |
| 2026-05-05 13:50 | 22.31094 | 113.91536 | 40 ft | 9 kts | 161° |
| 2026-05-05 13:51 | 22.31038 | 113.91557 | 40 ft | 5 kts | 160° |
| 2026-05-05 13:51 | 22.31016 | 113.91573 | 40 ft | 3 kts | 121° |
| 2026-05-05 13:51 | 22.31015 | 113.91601 | 40 ft | 4 kts | 76° |
| 2026-05-05 13:51 | 22.31024 | 113.91632 | 40 ft | 4 kts | 70° |
| 2026-05-05 13:52 | 22.31033 | 113.91662 | 40 ft | 3 kts | 71° |
| 2026-05-05 13:52 | 22.31037 | 113.91674 | 40 ft | 0 kts | 72° |
| 2026-05-05 13:52 | 22.31038 | 113.91676 | 40 ft | 0 kts | 72° |